QFA185 YPDN-AYPY
Flight info
| Callsign | QFA185 |
|---|---|
| Flight time | 2h 14m |
| Altitude | 39000 |
| Route | DN DCT VANDI DCT MASRA B598 ESKIM DCT GUMBU DCT PY |
| Aircraft | A339/H-SADE1E2E3GHIJ3J5M1P2RWXY/LB2D1 |
Departure
| Time | 2026-04-29 09:00 |
|---|---|
| Airport | Darwin International Airport / RAAF Darwin (YPDN) |
Arrival
| Time | 2026-04-29 11:15 |
|---|---|
| Airport | Port Moresby Jacksons International Airport (AYPY) |
| Time | Latitude | Longitude | Altitude | Speed | Heading |
|---|---|---|---|---|---|
| 2026-04-29 08:25 | -12.40850 | 130.87585 | 95 ft | 0 kts | 43° |
| 2026-04-29 08:48 | -12.40854 | 130.87581 | 98 ft | 1 kts | 40° |
| 2026-04-29 08:48 | -12.40859 | 130.87577 | 96 ft | 1 kts | 39° |
| 2026-04-29 08:48 | -12.40864 | 130.87572 | 97 ft | 1 kts | 40° |
| 2026-04-29 08:49 | -12.40869 | 130.87567 | 97 ft | 1 kts | 32° |
| 2026-04-29 08:49 | -12.40875 | 130.87562 | 93 ft | 1 kts | 25° |
| 2026-04-29 08:49 | -12.40882 | 130.87558 | 93 ft | 1 kts | 360° |
| 2026-04-29 08:49 | -12.40889 | 130.87556 | 94 ft | 1 kts | 338° |
| 2026-04-29 08:50 | -12.40896 | 130.87558 | 94 ft | 1 kts | 323° |
| 2026-04-29 08:50 | -12.40902 | 130.87562 | 94 ft | 1 kts | 321° |
| 2026-04-29 08:50 | -12.40903 | 130.87563 | 94 ft | 0 kts | 322° |
| 2026-04-29 08:51 | -12.40887 | 130.87554 | 94 ft | 8 kts | 351° |
| 2026-04-29 08:51 | -12.40897 | 130.87573 | 93 ft | 0 kts | 134° |
| 2026-04-29 08:53 | -12.40916 | 130.87589 | 98 ft | 7 kts | 141° |
| 2026-04-29 08:53 | -12.40982 | 130.87605 | 102 ft | 13 kts | 181° |
| 2026-04-29 08:54 | -12.41079 | 130.87577 | 107 ft | 15 kts | 198° |
| 2026-04-29 08:54 | -12.41179 | 130.87542 | 107 ft | 16 kts | 199° |
| 2026-04-29 08:54 | -12.41242 | 130.87457 | 107 ft | 17 kts | 267° |
| 2026-04-29 08:54 | -12.41209 | 130.87326 | 106 ft | 20 kts | 288° |
| 2026-04-29 08:55 | -12.41162 | 130.87186 | 107 ft | 21 kts | 290° |
| 2026-04-29 08:55 | -12.41111 | 130.87043 | 107 ft | 22 kts | 289° |
| 2026-04-29 08:55 | -12.41059 | 130.86890 | 108 ft | 23 kts | 289° |
| 2026-04-29 08:55 | -12.41024 | 130.86741 | 113 ft | 21 kts | 274° |
| 2026-04-29 08:56 | -12.41027 | 130.86597 | 112 ft | 20 kts | 270° |
| 2026-04-29 08:56 | -12.40965 | 130.86528 | 113 ft | 9 kts | 10° |
| 2026-04-29 08:56 | -12.40952 | 130.86573 | 115 ft | 7 kts | 93° |
| 2026-04-29 08:56 | -12.40967 | 130.86618 | 113 ft | 0 kts | 109° |
| 2026-04-29 09:00 | -12.40973 | 130.86639 | 113 ft | 23 kts | 108° |
| 2026-04-29 09:00 | -12.41123 | 130.87090 | 107 ft | 110 kts | 109° |
| 2026-04-29 09:00 | -12.41450 | 130.88062 | 106 ft | 175 kts | 108° |
| 2026-04-29 09:00 | -12.41886 | 130.89267 | 761 ft | 177 kts | 110° |
| 2026-04-29 09:01 | -12.42313 | 130.90453 | 1658 ft | 177 kts | 106° |
| 2026-04-29 09:01 | -12.42671 | 130.91661 | 2427 ft | 181 kts | 105° |
| 2026-04-29 09:01 | -12.43043 | 130.92945 | 2915 ft | 197 kts | 106° |
| 2026-04-29 09:01 | -12.43483 | 130.94360 | 3242 ft | 220 kts | 107° |
| 2026-04-29 09:02 | -12.43997 | 130.95909 | 3595 ft | 238 kts | 108° |
| 2026-04-29 09:02 | -12.44565 | 130.97571 | 3900 ft | 255 kts | 109° |
| 2026-04-29 09:02 | -12.45150 | 130.99268 | 4583 ft | 254 kts | 109° |
| 2026-04-29 09:02 | -12.45739 | 131.00981 | 5230 ft | 257 kts | 109° |
| 2026-04-29 09:03 | -12.46331 | 131.02709 | 5909 ft | 257 kts | 109° |
| 2026-04-29 09:03 | -12.46895 | 131.04448 | 6568 ft | 258 kts | 105° |
| 2026-04-29 09:03 | -12.47142 | 131.05650 | 6918 ft | 262 kts | 99° |
| 2026-04-29 09:03 | -12.47410 | 131.07515 | 7437 ft | 268 kts | 98° |
| 2026-04-29 09:04 | -12.47692 | 131.09410 | 8000 ft | 271 kts | 99° |
| 2026-04-29 09:04 | -12.48086 | 131.11966 | 8729 ft | 277 kts | 99° |
| 2026-04-29 09:04 | -12.48293 | 131.13287 | 9081 ft | 280 kts | 99° |
| 2026-04-29 09:04 | -12.48608 | 131.15276 | 9569 ft | 286 kts | 99° |
| 2026-04-29 09:05 | -12.48929 | 131.17299 | 10084 ft | 289 kts | 99° |
| 2026-04-29 09:05 | -12.49251 | 131.19350 | 10305 ft | 304 kts | 99° |
| 2026-04-29 09:05 | -12.49596 | 131.21545 | 10455 ft | 321 kts | 99° |
| 2026-04-29 09:05 | -12.49961 | 131.23862 | 10593 ft | 336 kts | 99° |
| 2026-04-29 09:06 | -12.50336 | 131.26259 | 10947 ft | 342 kts | 99° |
| 2026-04-29 09:06 | -12.50714 | 131.28676 | 11401 ft | 346 kts | 100° |
| 2026-04-29 09:06 | -12.51096 | 131.31124 | 11853 ft | 349 kts | 100° |
| 2026-04-29 09:06 | -12.51476 | 131.33557 | 12298 ft | 352 kts | 101° |
| 2026-04-29 09:07 | -12.51868 | 131.36056 | 12768 ft | 355 kts | 101° |
| 2026-04-29 09:07 | -12.52260 | 131.38564 | 13208 ft | 359 kts | 101° |
| 2026-04-29 09:07 | -12.52657 | 131.41105 | 13650 ft | 362 kts | 101° |
| 2026-04-29 09:07 | -12.53058 | 131.43667 | 14055 ft | 365 kts | 101° |
| 2026-04-29 09:08 | -12.53459 | 131.46235 | 14476 ft | 367 kts | 101° |
| 2026-04-29 09:08 | -12.53863 | 131.48823 | 14883 ft | 369 kts | 101° |
| 2026-04-29 09:08 | -12.54269 | 131.51426 | 15300 ft | 371 kts | 101° |
| 2026-04-29 09:08 | -12.54676 | 131.54036 | 15717 ft | 373 kts | 101° |
| 2026-04-29 09:09 | -12.55086 | 131.56669 | 16101 ft | 375 kts | 100° |
| 2026-04-29 09:09 | -12.55499 | 131.59313 | 16493 ft | 378 kts | 100° |
| 2026-04-29 09:09 | -12.55914 | 131.61980 | 16879 ft | 380 kts | 100° |
| 2026-04-29 09:09 | -12.56331 | 131.64658 | 17262 ft | 382 kts | 100° |
| 2026-04-29 09:10 | -12.56749 | 131.67351 | 17628 ft | 384 kts | 100° |
| 2026-04-29 09:10 | -12.57170 | 131.70064 | 17779 ft | 386 kts | 100° |
| 2026-04-29 09:10 | -12.57591 | 131.72744 | 17866 ft | 386 kts | 101° |
| 2026-04-29 09:10 | -12.58148 | 131.75435 | 17960 ft | 388 kts | 105° |
| 2026-04-29 09:11 | -12.58889 | 131.78097 | 18355 ft | 388 kts | 108° |
| 2026-04-29 09:11 | -12.59665 | 131.80750 | 18694 ft | 390 kts | 107° |
| 2026-04-29 09:11 | -12.60429 | 131.83426 | 19012 ft | 393 kts | 107° |
| 2026-04-29 09:11 | -12.61189 | 131.86115 | 19342 ft | 395 kts | 107° |
| 2026-04-29 09:12 | -12.61955 | 131.88830 | 19686 ft | 397 kts | 107° |
| 2026-04-29 09:12 | -12.62724 | 131.91552 | 20026 ft | 399 kts | 107° |
| 2026-04-29 09:12 | -12.63500 | 131.94296 | 20361 ft | 401 kts | 107° |
| 2026-04-29 09:12 | -12.64265 | 131.97049 | 20698 ft | 403 kts | 105° |
| 2026-04-29 09:13 | -12.64715 | 131.99863 | 21011 ft | 407 kts | 95° |
| 2026-04-29 09:13 | -12.64757 | 132.02772 | 21355 ft | 410 kts | 88° |
| 2026-04-29 09:13 | -12.64427 | 132.05683 | 21691 ft | 413 kts | 80° |
| 2026-04-29 09:13 | -12.63735 | 132.08546 | 22028 ft | 416 kts | 73° |
| 2026-04-29 09:14 | -12.62682 | 132.11320 | 22371 ft | 419 kts | 65° |
| 2026-04-29 09:14 | -12.61275 | 132.13946 | 22725 ft | 422 kts | 58° |
| 2026-04-29 09:14 | -12.59523 | 132.16383 | 23056 ft | 425 kts | 50° |
| 2026-04-29 09:14 | -12.57456 | 132.18568 | 23400 ft | 428 kts | 42° |
| 2026-04-29 09:15 | -12.55135 | 132.20437 | 23691 ft | 431 kts | 34° |
| 2026-04-29 09:15 | -12.52533 | 132.22000 | 23984 ft | 434 kts | 26° |
| 2026-04-29 09:15 | -12.49746 | 132.23182 | 24291 ft | 435 kts | 18° |
| 2026-04-29 09:15 | -12.46803 | 132.23968 | 24577 ft | 438 kts | 10° |
| 2026-04-29 09:16 | -12.43771 | 132.24329 | 24862 ft | 439 kts | 2° |
| 2026-04-29 09:16 | -12.40708 | 132.24441 | 25154 ft | 441 kts | 1° |
| 2026-04-29 09:16 | -12.37639 | 132.24741 | 25421 ft | 444 kts | 9° |
| 2026-04-29 09:16 | -12.34636 | 132.25523 | 25720 ft | 446 kts | 18° |
| 2026-04-29 09:17 | -12.31803 | 132.26735 | 25998 ft | 449 kts | 27° |
| 2026-04-29 09:17 | -12.29083 | 132.28400 | 26281 ft | 451 kts | 35° |
| 2026-04-29 09:17 | -12.26644 | 132.30430 | 26555 ft | 453 kts | 43° |
| 2026-04-29 09:17 | -12.24504 | 132.32805 | 26828 ft | 455 kts | 52° |
| 2026-04-29 09:18 | -12.22734 | 132.35447 | 27102 ft | 457 kts | 60° |
| 2026-04-29 09:18 | -12.21332 | 132.38363 | 27405 ft | 457 kts | 69° |
| 2026-04-29 09:18 | -12.20355 | 132.41464 | 27666 ft | 459 kts | 77° |
| 2026-04-29 09:18 | -12.19810 | 132.44675 | 27967 ft | 459 kts | 83° |
| 2026-04-29 09:19 | -12.19365 | 132.47922 | 28203 ft | 462 kts | 83° |
| 2026-04-29 09:19 | -12.18888 | 132.51189 | 28479 ft | 464 kts | 83° |
| 2026-04-29 09:19 | -12.18399 | 132.54460 | 28750 ft | 467 kts | 82° |
| 2026-04-29 09:19 | -12.17904 | 132.57750 | 29014 ft | 469 kts | 82° |
| 2026-04-29 09:20 | -12.17409 | 132.61048 | 29277 ft | 471 kts | 83° |
| 2026-04-29 09:20 | -12.16918 | 132.64323 | 29566 ft | 472 kts | 83° |
| 2026-04-29 09:20 | -12.16420 | 132.67649 | 29827 ft | 475 kts | 83° |
| 2026-04-29 09:20 | -12.15919 | 132.70996 | 30082 ft | 477 kts | 83° |
| 2026-04-29 09:21 | -12.15414 | 132.74362 | 30324 ft | 479 kts | 82° |
| 2026-04-29 09:21 | -12.14908 | 132.77737 | 30567 ft | 481 kts | 82° |
| 2026-04-29 09:21 | -12.14400 | 132.81118 | 30835 ft | 483 kts | 82° |
| 2026-04-29 09:21 | -12.13890 | 132.84515 | 31017 ft | 486 kts | 82° |
| 2026-04-29 09:22 | -12.13374 | 132.87945 | 31286 ft | 488 kts | 82° |
| 2026-04-29 09:22 | -12.12857 | 132.91377 | 31551 ft | 490 kts | 82° |
| 2026-04-29 09:22 | -12.12337 | 132.94827 | 31800 ft | 491 kts | 81° |
| 2026-04-29 09:22 | -12.11822 | 132.98240 | 32042 ft | 493 kts | 81° |
| 2026-04-29 09:23 | -12.11298 | 133.01710 | 32273 ft | 495 kts | 81° |
| 2026-04-29 09:23 | -12.10771 | 133.05201 | 32495 ft | 496 kts | 81° |
| 2026-04-29 09:23 | -12.10242 | 133.08697 | 32680 ft | 498 kts | 81° |
| 2026-04-29 09:23 | -12.09712 | 133.12198 | 32856 ft | 499 kts | 81° |
| 2026-04-29 09:24 | -12.09180 | 133.15710 | 33003 ft | 501 kts | 81° |
| 2026-04-29 09:24 | -12.08647 | 133.19232 | 33145 ft | 502 kts | 81° |
| 2026-04-29 09:24 | -12.08111 | 133.22763 | 33278 ft | 503 kts | 81° |
| 2026-04-29 09:24 | -12.07581 | 133.26253 | 33390 ft | 503 kts | 81° |
| 2026-04-29 09:25 | -12.07044 | 133.29785 | 33533 ft | 503 kts | 81° |
| 2026-04-29 09:25 | -12.06506 | 133.33322 | 33684 ft | 503 kts | 81° |
| 2026-04-29 09:25 | -12.05967 | 133.36863 | 33841 ft | 503 kts | 81° |
| 2026-04-29 09:25 | -12.05429 | 133.40394 | 33983 ft | 503 kts | 81° |
| 2026-04-29 09:26 | -12.04891 | 133.43922 | 34111 ft | 502 kts | 81° |
| 2026-04-29 09:26 | -12.04360 | 133.47398 | 34255 ft | 502 kts | 81° |
| 2026-04-29 09:26 | -12.03819 | 133.50935 | 34385 ft | 502 kts | 80° |
| 2026-04-29 09:26 | -12.03280 | 133.54459 | 34518 ft | 501 kts | 80° |
| 2026-04-29 09:27 | -12.02741 | 133.57980 | 34649 ft | 501 kts | 80° |
| 2026-04-29 09:27 | -12.02203 | 133.61496 | 34780 ft | 501 kts | 80° |
| 2026-04-29 09:27 | -12.01664 | 133.65008 | 34919 ft | 501 kts | 80° |
| 2026-04-29 09:27 | -12.01124 | 133.68525 | 35053 ft | 500 kts | 80° |
| 2026-04-29 09:28 | -12.00585 | 133.72038 | 35184 ft | 500 kts | 80° |
| 2026-04-29 09:28 | -12.00045 | 133.75549 | 35320 ft | 500 kts | 80° |
| 2026-04-29 09:28 | -11.99506 | 133.79055 | 35461 ft | 500 kts | 80° |
| 2026-04-29 09:28 | -11.98965 | 133.82567 | 35593 ft | 500 kts | 80° |
| 2026-04-29 09:29 | -11.98424 | 133.86077 | 35735 ft | 500 kts | 80° |
| 2026-04-29 09:29 | -11.97343 | 133.93087 | 36027 ft | 499 kts | 80° |
| 2026-04-29 09:29 | -11.96801 | 133.96591 | 36175 ft | 499 kts | 80° |
| 2026-04-29 09:30 | -11.96268 | 134.00041 | 36322 ft | 499 kts | 79° |
| 2026-04-29 09:30 | -11.95726 | 134.03546 | 36475 ft | 499 kts | 79° |
| 2026-04-29 09:30 | -11.95183 | 134.07051 | 36593 ft | 499 kts | 79° |
| 2026-04-29 09:30 | -11.94640 | 134.10554 | 36754 ft | 499 kts | 79° |
| 2026-04-29 09:31 | -11.94099 | 134.14059 | 36909 ft | 499 kts | 79° |
| 2026-04-29 09:31 | -11.93567 | 134.17563 | 37060 ft | 499 kts | 79° |
| 2026-04-29 09:31 | -11.93039 | 134.21064 | 37200 ft | 498 kts | 79° |
| 2026-04-29 09:31 | -11.92512 | 134.24564 | 37346 ft | 498 kts | 79° |
| 2026-04-29 09:32 | -11.91985 | 134.28049 | 37484 ft | 498 kts | 79° |
| 2026-04-29 09:32 | -11.91460 | 134.31516 | 37619 ft | 498 kts | 79° |
| 2026-04-29 09:32 | -11.90922 | 134.35058 | 37756 ft | 498 kts | 79° |
| 2026-04-29 09:32 | -11.90396 | 134.38517 | 37891 ft | 498 kts | 79° |
| 2026-04-29 09:33 | -11.89864 | 134.42015 | 38024 ft | 498 kts | 79° |
| 2026-04-29 09:33 | -11.89333 | 134.45504 | 38169 ft | 497 kts | 79° |
| 2026-04-29 09:33 | -11.88800 | 134.49004 | 38303 ft | 497 kts | 79° |
| 2026-04-29 09:33 | -11.88266 | 134.52503 | 38432 ft | 497 kts | 79° |
| 2026-04-29 09:34 | -11.87734 | 134.55989 | 38555 ft | 497 kts | 79° |
| 2026-04-29 09:34 | -11.87207 | 134.59436 | 38666 ft | 497 kts | 79° |
| 2026-04-29 09:34 | -11.86673 | 134.62925 | 38790 ft | 496 kts | 79° |
| 2026-04-29 09:34 | -11.86141 | 134.66408 | 38908 ft | 495 kts | 79° |
| 2026-04-29 09:35 | -11.85076 | 134.73355 | 38937 ft | 494 kts | 79° |
| 2026-04-29 09:35 | -11.84012 | 134.80285 | 38942 ft | 494 kts | 79° |
| 2026-04-29 09:36 | -11.82946 | 134.87215 | 38941 ft | 495 kts | 79° |
| 2026-04-29 09:36 | -11.81877 | 134.94154 | 38938 ft | 495 kts | 79° |
| 2026-04-29 09:37 | -11.80812 | 135.01055 | 38937 ft | 494 kts | 79° |
| 2026-04-29 09:37 | -11.79740 | 135.07995 | 38937 ft | 494 kts | 79° |
| 2026-04-29 09:38 | -11.78667 | 135.14926 | 38940 ft | 494 kts | 79° |
| 2026-04-29 09:38 | -11.77592 | 135.21858 | 38946 ft | 494 kts | 79° |
| 2026-04-29 09:39 | -11.76517 | 135.28785 | 38951 ft | 493 kts | 79° |
| 2026-04-29 09:39 | -11.75441 | 135.35706 | 38943 ft | 493 kts | 79° |
| 2026-04-29 09:40 | -11.74370 | 135.42578 | 38940 ft | 492 kts | 79° |
| 2026-04-29 09:40 | -11.73293 | 135.49482 | 38943 ft | 492 kts | 79° |
| 2026-04-29 09:41 | -11.72215 | 135.56378 | 38942 ft | 492 kts | 79° |
| 2026-04-29 09:41 | -11.71135 | 135.63276 | 38932 ft | 492 kts | 79° |
| 2026-04-29 09:42 | -11.70053 | 135.70178 | 38942 ft | 493 kts | 79° |
| 2026-04-29 09:42 | -11.68967 | 135.77091 | 38948 ft | 493 kts | 79° |
| 2026-04-29 09:43 | -11.67887 | 135.83957 | 38946 ft | 493 kts | 79° |
| 2026-04-29 09:43 | -11.66795 | 135.90891 | 38944 ft | 494 kts | 79° |
| 2026-04-29 09:44 | -11.65703 | 135.97812 | 38946 ft | 494 kts | 79° |
| 2026-04-29 09:44 | -11.64611 | 136.04734 | 38944 ft | 492 kts | 78° |
| 2026-04-29 09:45 | -11.63527 | 136.11576 | 38946 ft | 491 kts | 78° |
| 2026-04-29 09:45 | -11.62435 | 136.18457 | 38946 ft | 491 kts | 78° |
| 2026-04-29 09:46 | -11.61342 | 136.25340 | 38948 ft | 491 kts | 78° |
| 2026-04-29 09:46 | -11.60247 | 136.32233 | 38948 ft | 491 kts | 78° |
| 2026-04-29 09:47 | -11.59151 | 136.39115 | 38947 ft | 491 kts | 78° |
| 2026-04-29 09:47 | -11.58054 | 136.45991 | 38953 ft | 491 kts | 78° |
| 2026-04-29 09:48 | -11.56964 | 136.52830 | 38944 ft | 491 kts | 78° |
| 2026-04-29 09:48 | -11.55866 | 136.59714 | 38946 ft | 491 kts | 78° |
| 2026-04-29 09:49 | -11.54765 | 136.66600 | 38945 ft | 491 kts | 78° |
| 2026-04-29 09:49 | -11.53669 | 136.73445 | 38947 ft | 491 kts | 78° |
| 2026-04-29 09:50 | -11.52564 | 136.80328 | 38951 ft | 491 kts | 78° |
| 2026-04-29 09:50 | -11.51645 | 136.86051 | 38956 ft | 491 kts | 78° |
| 2026-04-29 09:51 | -11.50359 | 136.94040 | 38949 ft | 491 kts | 78° |
| 2026-04-29 09:51 | -11.49439 | 136.99750 | 38943 ft | 491 kts | 78° |
| 2026-04-29 09:52 | -11.48332 | 137.06606 | 38943 ft | 491 kts | 78° |
| 2026-04-29 09:52 | -11.47221 | 137.13481 | 38947 ft | 491 kts | 78° |
| 2026-04-29 09:53 | -11.46109 | 137.20347 | 38946 ft | 491 kts | 78° |
| 2026-04-29 09:53 | -11.44998 | 137.27204 | 38950 ft | 491 kts | 78° |
| 2026-04-29 09:54 | -11.43881 | 137.34079 | 38946 ft | 491 kts | 78° |
| 2026-04-29 09:54 | -11.42771 | 137.40903 | 38942 ft | 491 kts | 78° |
| 2026-04-29 09:55 | -11.41651 | 137.47779 | 38945 ft | 491 kts | 78° |
| 2026-04-29 09:55 | -11.40532 | 137.54643 | 38955 ft | 491 kts | 78° |
| 2026-04-29 09:56 | -11.39414 | 137.61492 | 38950 ft | 491 kts | 78° |
| 2026-04-29 09:56 | -11.38288 | 137.68370 | 38953 ft | 491 kts | 78° |
| 2026-04-29 09:57 | -11.37161 | 137.75248 | 38955 ft | 491 kts | 78° |
| 2026-04-29 09:57 | -11.36035 | 137.82114 | 38948 ft | 491 kts | 78° |
| 2026-04-29 09:58 | -11.34913 | 137.88940 | 38946 ft | 491 kts | 78° |
| 2026-04-29 09:58 | -11.33781 | 137.95819 | 38953 ft | 492 kts | 78° |
| 2026-04-29 09:59 | -11.32648 | 138.02693 | 38946 ft | 492 kts | 78° |
| 2026-04-29 09:59 | -11.31510 | 138.09584 | 38944 ft | 492 kts | 78° |
| 2026-04-29 10:00 | -11.30374 | 138.16458 | 38949 ft | 492 kts | 78° |
| 2026-04-29 10:00 | -11.29235 | 138.23338 | 38956 ft | 492 kts | 78° |
| 2026-04-29 10:01 | -11.28099 | 138.30187 | 38952 ft | 493 kts | 78° |
| 2026-04-29 10:01 | -11.26954 | 138.37086 | 38958 ft | 493 kts | 78° |
| 2026-04-29 10:02 | -11.25808 | 138.43970 | 38957 ft | 493 kts | 78° |
| 2026-04-29 10:02 | -11.24669 | 138.50811 | 38952 ft | 492 kts | 78° |
| 2026-04-29 10:03 | -11.23522 | 138.57696 | 38952 ft | 493 kts | 78° |
| 2026-04-29 10:03 | -11.22369 | 138.64600 | 38953 ft | 492 kts | 78° |
| 2026-04-29 10:04 | -11.21226 | 138.71434 | 38951 ft | 492 kts | 78° |
| 2026-04-29 10:04 | -11.20072 | 138.78322 | 38957 ft | 492 kts | 78° |
| 2026-04-29 10:05 | -11.18917 | 138.85210 | 38953 ft | 492 kts | 78° |
| 2026-04-29 10:05 | -11.17769 | 138.92048 | 38958 ft | 492 kts | 78° |
| 2026-04-29 10:06 | -11.16611 | 138.98927 | 38954 ft | 492 kts | 78° |
| 2026-04-29 10:06 | -11.15453 | 139.05799 | 38951 ft | 492 kts | 78° |
| 2026-04-29 10:07 | -11.14293 | 139.12682 | 38952 ft | 492 kts | 78° |
| 2026-04-29 10:07 | -11.13131 | 139.19561 | 38952 ft | 492 kts | 78° |
| 2026-04-29 10:08 | -11.11968 | 139.26431 | 38949 ft | 492 kts | 78° |
| 2026-04-29 10:08 | -11.10803 | 139.33305 | 38949 ft | 492 kts | 78° |
| 2026-04-29 10:09 | -11.09646 | 139.40128 | 38952 ft | 492 kts | 78° |
| 2026-04-29 10:09 | -11.08476 | 139.47013 | 38949 ft | 492 kts | 78° |
| 2026-04-29 10:10 | -11.07307 | 139.53885 | 38951 ft | 492 kts | 78° |
| 2026-04-29 10:10 | -11.06136 | 139.60759 | 38954 ft | 493 kts | 78° |
| 2026-04-29 10:11 | -11.04970 | 139.67590 | 38953 ft | 493 kts | 78° |
| 2026-04-29 10:11 | -11.03795 | 139.74466 | 38946 ft | 493 kts | 78° |
| 2026-04-29 10:12 | -11.02620 | 139.81334 | 38950 ft | 493 kts | 78° |
| 2026-04-29 10:12 | -11.01439 | 139.88229 | 38950 ft | 493 kts | 78° |
| 2026-04-29 10:13 | -11.00256 | 139.95126 | 38949 ft | 494 kts | 78° |
| 2026-04-29 10:13 | -10.99074 | 140.02005 | 38949 ft | 494 kts | 78° |
| 2026-04-29 10:14 | -10.97900 | 140.08830 | 38952 ft | 490 kts | 78° |
| 2026-04-29 10:14 | -10.96723 | 140.15669 | 38952 ft | 490 kts | 78° |
| 2026-04-29 10:15 | -10.95543 | 140.22511 | 38949 ft | 492 kts | 78° |
| 2026-04-29 10:15 | -10.94358 | 140.29378 | 38949 ft | 491 kts | 78° |
| 2026-04-29 10:16 | -10.93376 | 140.35071 | 38952 ft | 491 kts | 78° |
| 2026-04-29 10:16 | -10.92000 | 140.43036 | 38952 ft | 491 kts | 78° |
| 2026-04-29 10:17 | -10.90815 | 140.49886 | 38952 ft | 492 kts | 78° |
| 2026-04-29 10:17 | -10.89627 | 140.56740 | 38951 ft | 492 kts | 78° |
| 2026-04-29 10:18 | -10.88438 | 140.63595 | 38950 ft | 492 kts | 78° |
| 2026-04-29 10:18 | -10.87246 | 140.70455 | 38960 ft | 492 kts | 78° |
| 2026-04-29 10:19 | -10.86060 | 140.77267 | 38951 ft | 492 kts | 78° |
| 2026-04-29 10:19 | -10.84867 | 140.84119 | 38950 ft | 492 kts | 78° |
| 2026-04-29 10:20 | -10.83671 | 140.90972 | 38947 ft | 492 kts | 78° |
| 2026-04-29 10:20 | -10.82478 | 140.97814 | 38957 ft | 491 kts | 78° |
| 2026-04-29 10:21 | -10.81280 | 141.04651 | 38958 ft | 491 kts | 78° |
| 2026-04-29 10:21 | -10.80082 | 141.11489 | 38959 ft | 490 kts | 78° |
| 2026-04-29 10:22 | -10.78893 | 141.18270 | 38955 ft | 490 kts | 78° |
| 2026-04-29 10:22 | -10.77692 | 141.25102 | 38948 ft | 490 kts | 78° |
| 2026-04-29 10:23 | -10.76490 | 141.31936 | 38951 ft | 490 kts | 78° |
| 2026-04-29 10:23 | -10.75285 | 141.38785 | 38943 ft | 491 kts | 78° |
| 2026-04-29 10:24 | -10.74086 | 141.45584 | 38943 ft | 492 kts | 78° |
| 2026-04-29 10:24 | -10.72876 | 141.52434 | 38951 ft | 492 kts | 78° |
| 2026-04-29 10:25 | -10.71664 | 141.59286 | 38954 ft | 493 kts | 78° |
| 2026-04-29 10:25 | -10.70450 | 141.66148 | 38956 ft | 493 kts | 78° |
| 2026-04-29 10:26 | -10.69233 | 141.73011 | 38960 ft | 493 kts | 77° |
| 2026-04-29 10:26 | -10.68013 | 141.79883 | 38962 ft | 493 kts | 77° |
| 2026-04-29 10:27 | -10.66188 | 141.90150 | 38960 ft | 494 kts | 77° |
| 2026-04-29 10:28 | -10.64963 | 141.97027 | 38960 ft | 494 kts | 77° |
| 2026-04-29 10:28 | -10.63737 | 142.03905 | 38956 ft | 494 kts | 77° |
| 2026-04-29 10:29 | -10.62510 | 142.10778 | 38948 ft | 494 kts | 77° |
| 2026-04-29 10:29 | -10.61279 | 142.17662 | 38942 ft | 494 kts | 77° |
| 2026-04-29 10:30 | -10.60048 | 142.24544 | 38939 ft | 495 kts | 77° |
| 2026-04-29 10:30 | -10.58809 | 142.31378 | 38936 ft | 494 kts | 76° |
| 2026-04-29 10:31 | -10.57279 | 142.38193 | 38938 ft | 494 kts | 75° |
| 2026-04-29 10:31 | -10.55716 | 142.44997 | 38946 ft | 494 kts | 75° |
| 2026-04-29 10:32 | -10.54196 | 142.51782 | 38967 ft | 494 kts | 75° |
| 2026-04-29 10:32 | -10.52676 | 142.58609 | 38964 ft | 495 kts | 75° |
| 2026-04-29 10:33 | -10.51154 | 142.65443 | 38968 ft | 495 kts | 75° |
| 2026-04-29 10:33 | -10.49631 | 142.72265 | 38974 ft | 494 kts | 75° |
| 2026-04-29 10:34 | -10.48108 | 142.79081 | 38972 ft | 494 kts | 75° |
| 2026-04-29 10:34 | -10.46593 | 142.85857 | 38971 ft | 494 kts | 75° |
| 2026-04-29 10:35 | -10.45068 | 142.92668 | 38968 ft | 494 kts | 75° |
| 2026-04-29 10:35 | -10.43541 | 142.99485 | 38966 ft | 494 kts | 75° |
| 2026-04-29 10:36 | -10.42012 | 143.06297 | 38969 ft | 494 kts | 75° |
| 2026-04-29 10:36 | -10.40483 | 143.13106 | 38969 ft | 494 kts | 75° |
| 2026-04-29 10:37 | -10.38961 | 143.19877 | 38966 ft | 494 kts | 75° |
| 2026-04-29 10:37 | -10.37426 | 143.26696 | 38966 ft | 494 kts | 75° |
| 2026-04-29 10:38 | -10.35890 | 143.33514 | 38969 ft | 494 kts | 75° |
| 2026-04-29 10:38 | -10.34614 | 143.39175 | 38966 ft | 494 kts | 75° |
| 2026-04-29 10:39 | -10.32829 | 143.47084 | 38968 ft | 494 kts | 75° |
| 2026-04-29 10:39 | -10.31293 | 143.53882 | 38976 ft | 493 kts | 75° |
| 2026-04-29 10:40 | -10.30013 | 143.59540 | 38973 ft | 493 kts | 75° |
| 2026-04-29 10:40 | -10.28475 | 143.66331 | 38969 ft | 493 kts | 75° |
| 2026-04-29 10:41 | -10.26938 | 143.73112 | 38973 ft | 493 kts | 75° |
| 2026-04-29 10:41 | -10.25397 | 143.79906 | 38969 ft | 493 kts | 75° |
| 2026-04-29 10:42 | -10.23866 | 143.86650 | 38967 ft | 493 kts | 75° |
| 2026-04-29 10:42 | -10.22324 | 143.93435 | 38967 ft | 493 kts | 75° |
| 2026-04-29 10:43 | -10.20769 | 144.00217 | 38968 ft | 493 kts | 75° |
| 2026-04-29 10:43 | -10.19221 | 144.07003 | 38968 ft | 493 kts | 75° |
| 2026-04-29 10:44 | -10.17673 | 144.13791 | 38973 ft | 493 kts | 75° |
| 2026-04-29 10:44 | -10.16126 | 144.20525 | 38967 ft | 493 kts | 75° |
| 2026-04-29 10:45 | -10.14561 | 144.27313 | 38965 ft | 493 kts | 75° |
| 2026-04-29 10:45 | -10.12995 | 144.34094 | 38966 ft | 493 kts | 75° |
| 2026-04-29 10:46 | -10.11443 | 144.40815 | 38963 ft | 492 kts | 75° |
| 2026-04-29 10:46 | -10.09880 | 144.47575 | 38970 ft | 492 kts | 75° |
| 2026-04-29 10:47 | -10.08313 | 144.54346 | 38963 ft | 492 kts | 75° |
| 2026-04-29 10:47 | -10.06745 | 144.61118 | 38963 ft | 492 kts | 75° |
| 2026-04-29 10:48 | -10.05175 | 144.67890 | 38960 ft | 492 kts | 75° |
| 2026-04-29 10:48 | -10.03605 | 144.74658 | 38960 ft | 493 kts | 75° |
| 2026-04-29 10:49 | -10.02041 | 144.81394 | 38962 ft | 493 kts | 75° |
| 2026-04-29 10:49 | -10.00471 | 144.88154 | 38960 ft | 493 kts | 74° |
| 2026-04-29 10:50 | -9.98897 | 144.94921 | 38961 ft | 493 kts | 74° |
| 2026-04-29 10:50 | -9.97322 | 145.01686 | 38960 ft | 493 kts | 75° |
| 2026-04-29 10:51 | -9.95741 | 145.08466 | 38959 ft | 493 kts | 74° |
| 2026-04-29 10:51 | -9.94160 | 145.15246 | 38715 ft | 493 kts | 74° |
| 2026-04-29 10:51 | -9.93381 | 145.18586 | 38455 ft | 492 kts | 74° |
| 2026-04-29 10:52 | -9.92590 | 145.21974 | 38193 ft | 492 kts | 75° |
| 2026-04-29 10:52 | -9.91798 | 145.25359 | 37932 ft | 493 kts | 75° |
| 2026-04-29 10:52 | -9.91006 | 145.28746 | 37669 ft | 494 kts | 75° |
| 2026-04-29 10:52 | -9.90211 | 145.32143 | 37414 ft | 495 kts | 75° |
| 2026-04-29 10:53 | -9.89413 | 145.35551 | 37158 ft | 496 kts | 75° |
| 2026-04-29 10:53 | -9.88617 | 145.38954 | 36906 ft | 496 kts | 75° |
| 2026-04-29 10:53 | -9.87828 | 145.42321 | 36661 ft | 497 kts | 75° |
| 2026-04-29 10:53 | -9.87027 | 145.45738 | 36415 ft | 498 kts | 75° |
| 2026-04-29 10:54 | -9.86228 | 145.49149 | 36175 ft | 498 kts | 75° |
| 2026-04-29 10:54 | -9.85425 | 145.52572 | 35938 ft | 499 kts | 75° |
| 2026-04-29 10:54 | -9.84621 | 145.56000 | 35699 ft | 500 kts | 75° |
| 2026-04-29 10:54 | -9.83815 | 145.59434 | 35464 ft | 501 kts | 75° |
| 2026-04-29 10:55 | -9.83006 | 145.62878 | 35235 ft | 501 kts | 75° |
| 2026-04-29 10:55 | -9.82198 | 145.66319 | 35000 ft | 502 kts | 75° |
| 2026-04-29 10:55 | -9.81394 | 145.69739 | 34769 ft | 502 kts | 75° |
| 2026-04-29 10:55 | -9.80580 | 145.73202 | 34223 ft | 504 kts | 75° |
| 2026-04-29 10:56 | -9.79760 | 145.76681 | 33297 ft | 508 kts | 76° |
| 2026-04-29 10:56 | -9.78935 | 145.80179 | 32082 ft | 513 kts | 76° |
| 2026-04-29 10:56 | -9.78100 | 145.83713 | 30839 ft | 516 kts | 76° |
| 2026-04-29 10:56 | -9.77185 | 145.87245 | 29680 ft | 517 kts | 71° |
| 2026-04-29 10:57 | -9.75813 | 145.90556 | 28783 ft | 511 kts | 62° |
| 2026-04-29 10:57 | -9.73967 | 145.93593 | 28179 ft | 501 kts | 53° |
| 2026-04-29 10:57 | -9.71787 | 145.96298 | 27840 ft | 488 kts | 49° |
| 2026-04-29 10:57 | -9.69617 | 145.98912 | 27281 ft | 480 kts | 50° |
| 2026-04-29 10:58 | -9.67487 | 146.01523 | 26625 ft | 476 kts | 50° |
| 2026-04-29 10:58 | -9.65414 | 146.04076 | 25979 ft | 473 kts | 50° |
| 2026-04-29 10:58 | -9.63335 | 146.06632 | 25306 ft | 470 kts | 50° |
| 2026-04-29 10:58 | -9.61254 | 146.09185 | 24678 ft | 466 kts | 51° |
| 2026-04-29 10:59 | -9.59197 | 146.11704 | 24008 ft | 463 kts | 51° |
| 2026-04-29 10:59 | -9.57157 | 146.14200 | 23308 ft | 460 kts | 51° |
| 2026-04-29 10:59 | -9.55133 | 146.16680 | 22725 ft | 453 kts | 50° |
| 2026-04-29 10:59 | -9.53138 | 146.19124 | 22077 ft | 446 kts | 50° |
| 2026-04-29 11:00 | -9.51169 | 146.21537 | 21447 ft | 440 kts | 50° |
| 2026-04-29 11:00 | -9.49252 | 146.23887 | 20819 ft | 435 kts | 50° |
| 2026-04-29 11:00 | -9.47337 | 146.26232 | 20200 ft | 429 kts | 49° |
| 2026-04-29 11:00 | -9.45439 | 146.28555 | 19537 ft | 425 kts | 49° |
| 2026-04-29 11:01 | -9.43569 | 146.30845 | 18916 ft | 420 kts | 49° |
| 2026-04-29 11:01 | -9.41714 | 146.33107 | 18311 ft | 414 kts | 49° |
| 2026-04-29 11:01 | -9.39894 | 146.35338 | 17696 ft | 407 kts | 49° |
| 2026-04-29 11:01 | -9.38331 | 146.37702 | 17103 ft | 401 kts | 59° |
| 2026-04-29 11:02 | -9.37244 | 146.40276 | 16508 ft | 395 kts | 70° |
| 2026-04-29 11:02 | -9.36602 | 146.42921 | 15933 ft | 389 kts | 77° |
| 2026-04-29 11:02 | -9.36050 | 146.45585 | 15344 ft | 383 kts | 76° |
| 2026-04-29 11:02 | -9.35480 | 146.48198 | 14762 ft | 377 kts | 76° |
| 2026-04-29 11:03 | -9.34904 | 146.50780 | 14190 ft | 372 kts | 76° |
| 2026-04-29 11:03 | -9.34328 | 146.53324 | 13578 ft | 368 kts | 76° |
| 2026-04-29 11:03 | -9.33765 | 146.55818 | 13105 ft | 359 kts | 76° |
| 2026-04-29 11:03 | -9.33212 | 146.58264 | 12556 ft | 352 kts | 76° |
| 2026-04-29 11:04 | -9.32670 | 146.60669 | 12019 ft | 346 kts | 76° |
| 2026-04-29 11:04 | -9.32147 | 146.62990 | 11492 ft | 340 kts | 76° |
| 2026-04-29 11:04 | -9.31624 | 146.65304 | 10985 ft | 334 kts | 76° |
| 2026-04-29 11:04 | -9.31110 | 146.67583 | 10497 ft | 328 kts | 76° |
| 2026-04-29 11:05 | -9.30618 | 146.69772 | 10334 ft | 310 kts | 76° |
| 2026-04-29 11:05 | -9.30150 | 146.71853 | 10040 ft | 299 kts | 76° |
| 2026-04-29 11:05 | -9.29699 | 146.73860 | 9838 ft | 284 kts | 76° |
| 2026-04-29 11:05 | -9.29263 | 146.75795 | 9730 ft | 285 kts | 76° |
| 2026-04-29 11:06 | -9.28813 | 146.77777 | 9584 ft | 289 kts | 76° |
| 2026-04-29 11:06 | -9.28365 | 146.79761 | 9410 ft | 287 kts | 77° |
| 2026-04-29 11:06 | -9.27920 | 146.81726 | 9049 ft | 285 kts | 77° |
| 2026-04-29 11:06 | -9.27484 | 146.83658 | 8697 ft | 277 kts | 77° |
| 2026-04-29 11:07 | -9.27066 | 146.85503 | 8357 ft | 268 kts | 77° |
| 2026-04-29 11:07 | -9.26658 | 146.87306 | 8038 ft | 258 kts | 77° |
| 2026-04-29 11:07 | -9.26261 | 146.89062 | 7736 ft | 262 kts | 77° |
| 2026-04-29 11:07 | -9.25835 | 146.90943 | 7543 ft | 278 kts | 78° |
| 2026-04-29 11:08 | -9.25402 | 146.92858 | 7314 ft | 280 kts | 78° |
| 2026-04-29 11:08 | -9.24968 | 146.94782 | 6849 ft | 282 kts | 78° |
| 2026-04-29 11:08 | -9.24527 | 146.96698 | 6390 ft | 277 kts | 77° |
| 2026-04-29 11:08 | -9.23884 | 146.98542 | 5776 ft | 278 kts | 65° |
| 2026-04-29 11:09 | -9.22922 | 147.00190 | 5471 ft | 267 kts | 58° |
| 2026-04-29 11:09 | -9.21940 | 147.01709 | 5168 ft | 256 kts | 59° |
| 2026-04-29 11:09 | -9.21009 | 147.03210 | 4848 ft | 248 kts | 60° |
| 2026-04-29 11:09 | -9.20191 | 147.04810 | 4347 ft | 267 kts | 75° |
| 2026-04-29 11:10 | -9.20109 | 147.06690 | 3566 ft | 272 kts | 103° |
| 2026-04-29 11:10 | -9.21018 | 147.08289 | 3344 ft | 256 kts | 135° |
| 2026-04-29 11:10 | -9.22572 | 147.09171 | 3262 ft | 260 kts | 158° |
| 2026-04-29 11:10 | -9.24275 | 147.09838 | 2944 ft | 264 kts | 154° |
| 2026-04-29 11:11 | -9.25871 | 147.10694 | 2762 ft | 257 kts | 148° |
| 2026-04-29 11:11 | -9.27396 | 147.11654 | 2670 ft | 262 kts | 147° |
| 2026-04-29 11:11 | -9.28928 | 147.12596 | 2564 ft | 250 kts | 148° |
| 2026-04-29 11:11 | -9.30350 | 147.13488 | 2508 ft | 231 kts | 147° |
| 2026-04-29 11:12 | -9.31696 | 147.14315 | 2505 ft | 227 kts | 148° |
| 2026-04-29 11:12 | -9.33049 | 147.15162 | 2367 ft | 229 kts | 148° |
| 2026-04-29 11:12 | -9.34391 | 147.15986 | 2065 ft | 226 kts | 148° |
| 2026-04-29 11:12 | -9.35702 | 147.16811 | 1792 ft | 217 kts | 148° |
| 2026-04-29 11:13 | -9.36958 | 147.17581 | 1500 ft | 205 kts | 148° |
| 2026-04-29 11:13 | -9.38144 | 147.18325 | 1257 ft | 194 kts | 148° |
| 2026-04-29 11:13 | -9.39239 | 147.19003 | 1007 ft | 174 kts | 148° |
| 2026-04-29 11:13 | -9.40213 | 147.19608 | 749 ft | 156 kts | 147° |
| 2026-04-29 11:14 | -9.41097 | 147.20146 | 591 ft | 148 kts | 148° |
| 2026-04-29 11:14 | -9.41989 | 147.20696 | 393 ft | 146 kts | 149° |
| 2026-04-29 11:14 | -9.42868 | 147.21260 | 162 ft | 150 kts | 148° |
| 2026-04-29 11:14 | -9.43686 | 147.21776 | 93 ft | 114 kts | 149° |
| 2026-04-29 11:15 | -9.44108 | 147.22032 | 98 ft | 26 kts | 149° |
| 2026-04-29 11:15 | -9.44132 | 147.22047 | 98 ft | 3 kts | 149° |
| 2026-04-29 11:15 | -9.44180 | 147.22073 | 98 ft | 13 kts | 153° |
| 2026-04-29 11:15 | -9.44283 | 147.22138 | 102 ft | 21 kts | 147° |
| 2026-04-29 11:16 | -9.44439 | 147.22210 | 103 ft | 27 kts | 181° |
| 2026-04-29 11:16 | -9.44487 | 147.22184 | 102 ft | 0 kts | 233° |
| 2026-04-29 11:16 | -9.44494 | 147.22174 | 101 ft | 3 kts | 233° |
| 2026-04-29 11:17 | -9.44511 | 147.22152 | 98 ft | 5 kts | 232° |
| 2026-04-29 11:17 | -9.44532 | 147.22124 | 103 ft | 5 kts | 234° |
| 2026-04-29 11:17 | -9.44558 | 147.22083 | 105 ft | 9 kts | 237° |
| 2026-04-29 11:17 | -9.44602 | 147.22015 | 109 ft | 14 kts | 237° |
| 2026-04-29 11:18 | -9.44642 | 147.21913 | 110 ft | 17 kts | 275° |
| 2026-04-29 11:18 | -9.44567 | 147.21841 | 105 ft | 16 kts | 329° |
| 2026-04-29 11:18 | -9.44469 | 147.21780 | 107 ft | 18 kts | 328° |
| 2026-04-29 11:18 | -9.44356 | 147.21711 | 105 ft | 20 kts | 328° |
| 2026-04-29 11:19 | -9.44230 | 147.21633 | 102 ft | 22 kts | 328° |
| 2026-04-29 11:19 | -9.44092 | 147.21549 | 98 ft | 24 kts | 328° |
| 2026-04-29 11:19 | -9.43943 | 147.21459 | 95 ft | 26 kts | 330° |
| 2026-04-29 11:19 | -9.43862 | 147.21321 | 94 ft | 21 kts | 254° |
| 2026-04-29 11:20 | -9.43907 | 147.21254 | 91 ft | 0 kts | 239° |